Time;durP1;ratioP1;P1;durP2;ratioP2;P2;SDS_P1;SDS_P2;PMS_P1;PMS_P2;Temp;Humidity;BMP_temperature;BMP_pressure;BME280_temperature;BME280_humidity;BME280_pressure;Samples;Min_cycle;Max_cycle;Signal;HPM_P1;HPM_P2
2022/09/29 00:02:08;;;;;;;7.93;6.87;;;9.20;99.90;;;;;;5062678;28;20459;-86
2022/09/29 00:04:35;;;;;;;9.93;7.93;;;9.20;99.90;;;;;;5061266;28;20949;-85
2022/09/29 00:07:03;;;;;;;11.03;8.40;;;9.20;99.90;;;;;;5059934;28;20462;-85
2022/09/29 00:09:31;;;;;;;8.87;6.90;;;9.20;99.90;;;;;;5060680;28;20452;-86
2022/09/29 00:11:57;;;;;;;10.53;7.40;;;9.20;99.90;;;;;;5060851;28;20462;-86
2022/09/29 00:14:25;;;;;;;10.87;8.10;;;9.20;99.90;;;;;;5061941;28;20513;-85
2022/09/29 00:16:52;;;;;;;9.63;8.27;;;9.20;99.90;;;;;;5065512;28;20492;-85
2022/09/29 00:19:19;;;;;;;8.43;6.97;;;9.10;99.90;;;;;;5069510;28;20448;-85
2022/09/29 00:21:46;;;;;;;9.37;8.07;;;9.10;99.90;;;;;;5047495;28;20485;-84
2022/09/29 00:24:14;;;;;;;8.83;7.60;;;9.10;99.90;;;;;;5068082;28;20929;-85
2022/09/29 00:26:41;;;;;;;8.00;7.17;;;9.10;99.90;;;;;;5070929;28;20498;-86
2022/09/29 00:29:10;;;;;;;9.87;8.00;;;9.10;99.90;;;;;;5069884;28;20450;-85
2022/09/29 00:31:37;;;;;;;10.50;7.10;;;9.10;99.90;;;;;;5070971;28;20466;-84
2022/09/29 00:34:04;;;;;;;11.60;7.97;;;9.10;99.90;;;;;;5072010;28;20518;-86
2022/09/29 00:36:30;;;;;;;11.23;8.17;;;9.10;99.90;;;;;;5071466;28;20489;-85
2022/09/29 00:38:58;;;;;;;10.23;7.60;;;9.10;99.90;;;;;;5070755;28;20530;-86
2022/09/29 00:41:29;;;;;;;9.80;8.10;;;9.10;99.90;;;;;;5071007;28;20538;-84
2022/09/29 00:43:59;;;;;;;8.73;7.63;;;9.00;99.90;;;;;;5065277;28;20449;-86
2022/09/29 00:46:41;;;;;;;10.37;8.40;;;9.00;99.90;;;;;;5062519;28;20458;-87
2022/09/29 00:49:17;;;;;;;8.63;7.63;;;9.00;99.90;;;;;;5061489;28;20457;-86
2022/09/29 00:51:48;;;;;;;10.20;9.10;;;8.90;99.90;;;;;;5060938;28;20550;-85
2022/09/29 00:54:16;;;;;;;10.77;7.90;;;8.90;99.90;;;;;;5061215;28;20458;-86
2022/09/29 00:56:45;;;;;;;8.67;7.73;;;8.90;99.90;;;;;;5060814;28;20497;-85
2022/09/29 00:59:17;;;;;;;10.87;8.60;;;8.90;99.90;;;;;;5059214;28;20544;-85
2022/09/29 01:01:43;;;;;;;10.30;8.80;;;8.90;99.90;;;;;;5061078;28;20564;-85
2022/09/29 01:04:14;;;;;;;8.97;7.60;;;8.90;99.90;;;;;;5061072;28;20546;-85
2022/09/29 01:06:44;;;;;;;13.13;10.90;;;8.90;99.90;;;;;;5059370;28;20453;-85
2022/09/29 01:09:16;;;;;;;11.13;9.93;;;8.80;99.90;;;;;;5059785;28;20449;-85
2022/09/29 01:11:46;;;;;;;10.80;8.80;;;8.90;99.90;;;;;;5060686;28;20476;-85
2022/09/29 01:14:13;;;;;;;9.93;8.17;;;8.90;99.90;;;;;;5059978;28;20488;-85
2022/09/29 01:16:40;;;;;;;10.70;8.83;;;9.00;99.90;;;;;;5059507;28;20494;-85
2022/09/29 01:19:11;;;;;;;9.97;7.80;;;8.90;99.90;;;;;;5059865;28;20500;-85
2022/09/29 01:21:47;;;;;;;11.47;9.30;;;9.00;99.90;;;;;;5059757;28;20473;-84
2022/09/29 01:24:38;;;;;;;10.23;7.33;;;9.00;99.90;;;;;;5060253;28;20428;-85
2022/09/29 01:27:17;;;;;;;9.13;7.90;;;9.00;99.90;;;;;;5059889;28;20478;-85
2022/09/29 01:30:06;;;;;;;9.63;7.77;;;9.10;99.90;;;;;;5060114;28;20438;-86
2022/09/29 01:32:52;;;;;;;9.43;8.40;;;9.10;99.90;;;;;;5060377;28;20455;-85
2022/09/29 01:35:26;;;;;;;10.67;9.23;;;9.10;99.90;;;;;;5060011;28;20442;-86
2022/09/29 01:38:07;;;;;;;10.47;8.67;;;9.10;99.90;;;;;;5059561;28;20476;-85
2022/09/29 01:40:42;;;;;;;11.00;8.80;;;9.10;99.90;;;;;;5060497;28;20842;-85
2022/09/29 01:43:15;;;;;;;10.50;7.90;;;9.10;99.90;;;;;;5060532;28;20440;-85
2022/09/29 01:45:48;;;;;;;13.87;10.23;;;9.10;99.90;;;;;;5060227;28;20428;-84
2022/09/29 01:48:22;;;;;;;11.73;9.13;;;9.10;99.90;;;;;;5060118;28;20478;-85
2022/09/29 01:50:52;;;;;;;10.10;8.23;;;9.00;99.90;;;;;;5059335;28;20853;-85
2022/09/29 01:53:25;;;;;;;9.80;8.07;;;9.00;99.90;;;;;;5060378;28;20512;-85
2022/09/29 01:55:57;;;;;;;9.80;8.40;;;8.90;99.90;;;;;;5060446;28;20445;-85
2022/09/29 01:58:28;;;;;;;12.80;8.20;;;8.90;99.90;;;;;;5059910;28;20488;-85
2022/09/29 02:01:00;;;;;;;12.03;9.03;;;8.80;99.90;;;;;;5059524;28;20474;-85
2022/09/29 02:03:31;;;;;;;9.77;7.90;;;8.80;99.90;;;;;;5059778;28;20434;-85
2022/09/29 02:06:01;;;;;;;9.57;8.20;;;8.70;99.90;;;;;;5059175;28;20462;-84
2022/09/29 02:08:33;;;;;;;9.90;7.60;;;8.80;99.90;;;;;;5059643;28;20999;-86
2022/09/29 02:11:03;;;;;;;9.40;7.90;;;8.80;99.90;;;;;;5059739;28;20477;-85
2022/09/29 02:13:32;;;;;;;10.50;8.03;;;8.80;99.90;;;;;;5059676;28;20443;-86
2022/09/29 02:16:00;;;;;;;8.43;7.40;;;8.80;99.90;;;;;;5060355;28;20459;-85
2022/09/29 02:18:33;;;;;;;11.03;7.43;;;8.80;99.90;;;;;;5059034;28;20476;-85
2022/09/29 02:21:01;;;;;;;9.50;8.20;;;8.80;99.90;;;;;;5059763;28;20472;-86
2022/09/29 02:23:28;;;;;;;9.60;7.87;;;8.70;99.90;;;;;;5059387;28;20468;-85
2022/09/29 02:25:58;;;;;;;10.63;7.63;;;8.80;99.90;;;;;;5059578;28;20503;-84
2022/09/29 02:28:25;;;;;;;10.30;8.03;;;8.70;99.90;;;;;;5060404;28;20447;-85
2022/09/29 02:30:52;;;;;;;8.93;8.00;;;8.80;99.90;;;;;;5059564;28;21039;-84
2022/09/29 02:33:21;;;;;;;9.33;7.80;;;8.80;99.90;;;;;;5059643;28;20448;-85
2022/09/29 02:35:59;;;;;;;9.67;8.20;;;8.70;99.90;;;;;;5059597;28;20448;-87
2022/09/29 02:38:35;;;;;;;10.80;8.33;;;8.80;99.90;;;;;;5058839;28;20478;-85
2022/09/29 02:41:07;;;;;;;10.83;7.27;;;8.80;99.90;;;;;;5059351;28;21054;-86
2022/09/29 02:43:55;;;;;;;9.30;7.70;;;8.80;99.90;;;;;;5059754;28;20452;-85
2022/09/29 02:46:36;;;;;;;8.90;7.53;;;8.80;99.90;;;;;;5059834;28;20458;-85
2022/09/29 02:49:27;;;;;;;9.27;8.30;;;8.80;99.90;;;;;;5059765;28;20434;-86
2022/09/29 02:51:58;;;;;;;11.87;7.90;;;8.80;99.90;;;;;;5060140;28;20915;-85
2022/09/29 02:54:40;;;;;;;10.60;7.60;;;8.80;99.90;;;;;;5059349;28;20811;-86
2022/09/29 02:57:16;;;;;;;9.93;7.70;;;8.80;99.90;;;;;;5059971;28;20527;-85
2022/09/29 02:59:51;;;;;;;10.13;8.77;;;8.80;99.90;;;;;;5060233;28;20445;-85
2022/09/29 03:02:24;;;;;;;9.33;7.67;;;8.80;99.90;;;;;;5059688;28;20447;-86
2022/09/29 03:04:51;;;;;;;10.73;8.33;;;8.80;99.90;;;;;;5059836;28;20500;-85
2022/09/29 03:07:19;;;;;;;12.33;8.50;;;8.70;99.90;;;;;;5059202;28;20515;-85
2022/09/29 03:09:46;;;;;;;12.50;8.00;;;8.70;99.90;;;;;;5058264;28;20473;-84
2022/09/29 03:12:13;;;;;;;10.80;8.73;;;8.70;99.90;;;;;;5058847;28;20469;-85
2022/09/29 03:14:39;;;;;;;9.10;8.20;;;8.60;99.90;;;;;;5058991;28;20462;-84
2022/09/29 03:17:06;;;;;;;9.13;7.60;;;8.60;99.90;;;;;;5058311;28;20496;-84
2022/09/29 03:19:33;;;;;;;9.57;7.70;;;8.60;99.90;;;;;;5059256;28;20462;-84
2022/09/29 03:22:00;;;;;;;11.70;8.03;;;8.70;99.90;;;;;;5058653;28;20455;-85
2022/09/29 03:24:28;;;;;;;10.30;8.53;;;8.70;99.90;;;;;;5058842;28;20872;-85
2022/09/29 03:26:55;;;;;;;9.27;7.93;;;8.70;99.90;;;;;;5059227;28;20458;-85
2022/09/29 03:29:21;;;;;;;9.07;7.90;;;8.70;99.90;;;;;;5057668;28;20453;-84
2022/09/29 03:31:48;;;;;;;8.93;8.03;;;8.70;99.90;;;;;;5060664;28;20468;-84
2022/09/29 03:34:15;;;;;;;9.93;7.57;;;8.70;99.90;;;;;;5061480;28;20544;-83
2022/09/29 03:36:42;;;;;;;10.87;7.90;;;8.70;99.90;;;;;;5062397;28;20456;-84
2022/09/29 03:39:09;;;;;;;9.27;7.60;;;8.70;99.90;;;;;;5062917;28;20494;-84
2022/09/29 03:41:37;;;;;;;10.33;8.40;;;8.70;99.90;;;;;;5061840;28;20472;-84
2022/09/29 03:44:04;;;;;;;11.40;8.80;;;8.60;99.90;;;;;;5061650;28;20453;-84
2022/09/29 03:46:30;;;;;;;8.73;7.57;;;8.50;99.90;;;;;;5062238;28;20460;-84
2022/09/29 03:48:57;;;;;;;8.33;7.43;;;8.50;99.90;;;;;;5061846;28;20515;-84
2022/09/29 03:51:24;;;;;;;8.83;7.23;;;8.50;99.90;;;;;;5062875;28;20476;-84
2022/09/29 03:53:51;;;;;;;8.97;7.37;;;8.50;99.90;;;;;;5062433;28;20456;-84
2022/09/29 03:56:18;;;;;;;8.97;7.40;;;8.40;99.90;;;;;;5062464;28;20452;-85
2022/09/29 03:58:46;;;;;;;9.00;7.50;;;8.40;99.90;;;;;;5061046;28;20477;-84
2022/09/29 04:01:12;;;;;;;11.37;8.03;;;8.50;99.90;;;;;;5061921;28;20476;-84
2022/09/29 04:03:39;;;;;;;8.23;7.43;;;8.30;99.90;;;;;;5062232;28;20472;-84
2022/09/29 04:06:06;;;;;;;8.43;6.43;;;8.30;99.90;;;;;;5061417;28;20456;-84
2022/09/29 04:08:35;;;;;;;8.53;7.50;;;8.30;99.90;;;;;;5061371;28;20826;-85
2022/09/29 04:11:02;;;;;;;9.80;6.70;;;8.20;99.90;;;;;;5061243;28;20472;-84
2022/09/29 04:13:29;;;;;;;8.43;6.70;;;8.30;99.90;;;;;;5061293;28;20975;-84
2022/09/29 04:15:59;;;;;;;8.37;6.73;;;8.20;99.90;;;;;;5061994;28;20548;-85
2022/09/29 04:18:26;;;;;;;9.27;8.33;;;8.30;99.90;;;;;;5062009;28;20481;-84
2022/09/29 04:20:54;;;;;;;8.20;7.07;;;8.10;99.90;;;;;;5061106;28;20563;-83
2022/09/29 04:23:21;;;;;;;11.23;7.53;;;8.20;99.90;;;;;;5061830;28;20814;-83
2022/09/29 04:25:48;;;;;;;9.57;7.30;;;8.20;99.90;;;;;;5061879;28;20461;-84
2022/09/29 04:28:14;;;;;;;10.60;8.20;;;8.20;99.90;;;;;;5060820;28;20450;-84
2022/09/29 04:30:41;;;;;;;9.07;7.10;;;8.20;99.90;;;;;;5060259;28;20479;-84
2022/09/29 04:33:09;;;;;;;8.70;7.53;;;8.10;99.90;;;;;;5061635;28;20559;-84
2022/09/29 04:35:36;;;;;;;9.20;7.30;;;8.10;99.90;;;;;;5060153;28;20461;-83
2022/09/29 04:38:03;;;;;;;7.77;6.53;;;8.10;99.90;;;;;;5059659;28;20480;-83
2022/09/29 04:40:30;;;;;;;7.77;6.07;;;8.10;99.90;;;;;;5058451;28;20567;-84
2022/09/29 04:42:56;;;;;;;7.73;6.53;;;8.10;99.90;;;;;;5058523;28;20892;-83
2022/09/29 04:45:23;;;;;;;9.87;7.37;;;8.10;99.90;;;;;;5060448;28;20460;-85
2022/09/29 04:47:50;;;;;;;9.80;6.60;;;8.10;99.90;;;;;;5059290;28;20539;-84
2022/09/29 04:50:18;;;;;;;8.53;6.40;;;8.10;99.90;;;;;;5061541;28;20472;-84
2022/09/29 04:52:45;;;;;;;11.10;7.47;;;8.10;99.90;;;;;;5062419;28;20544;-87
2022/09/29 04:55:12;;;;;;;9.83;7.57;;;8.10;99.90;;;;;;5063167;28;20536;-84
2022/09/29 04:57:41;;;;;;;8.07;7.03;;;8.10;99.90;;;;;;5062069;28;20486;-83
2022/09/29 05:00:09;;;;;;;7.80;6.80;;;8.00;99.90;;;;;;5061346;28;20467;-84
2022/09/29 05:02:36;;;;;;;8.57;6.87;;;8.00;99.90;;;;;;5062158;28;20460;-84
2022/09/29 05:05:03;;;;;;;12.40;7.67;;;8.00;99.90;;;;;;5060273;28;20456;-84
2022/09/29 05:07:31;;;;;;;10.67;7.57;;;8.10;99.90;;;;;;5060263;28;20455;-84
2022/09/29 05:09:58;;;;;;;10.10;7.30;;;8.00;99.90;;;;;;5061057;28;20476;-84
2022/09/29 05:12:24;;;;;;;8.47;7.50;;;8.00;99.90;;;;;;5061516;28;20521;-85
2022/09/29 05:14:52;;;;;;;8.77;6.47;;;8.00;99.90;;;;;;5061120;28;20531;-84
2022/09/29 05:17:18;;;;;;;8.37;6.93;;;8.00;99.90;;;;;;5060587;28;20456;-84
2022/09/29 05:19:45;;;;;;;8.57;6.93;;;7.90;99.90;;;;;;5061418;28;20897;-84
2022/09/29 05:22:12;;;;;;;12.67;7.70;;;7.90;99.90;;;;;;5060626;28;20456;-84
2022/09/29 05:24:40;;;;;;;8.63;6.50;;;7.90;99.90;;;;;;5067882;28;20540;-85
2022/09/29 05:27:07;;;;;;;9.00;7.67;;;7.90;99.90;;;;;;5060675;28;20832;-84
2022/09/29 05:29:34;;;;;;;11.70;8.30;;;7.90;99.90;;;;;;5060843;28;20453;-85
2022/09/29 05:32:01;;;;;;;9.60;7.57;;;7.90;99.90;;;;;;5060289;28;20458;-85
2022/09/29 05:34:27;;;;;;;11.43;7.73;;;7.90;99.90;;;;;;5060267;28;20464;-84
2022/09/29 05:36:55;;;;;;;8.53;7.63;;;7.90;99.90;;;;;;5059799;28;20459;-84
2022/09/29 05:39:22;;;;;;;9.43;7.30;;;7.90;99.90;;;;;;5060132;28;20838;-83
2022/09/29 05:41:50;;;;;;;9.07;8.17;;;7.90;99.90;;;;;;5060635;28;20578;-84
2022/09/29 05:44:17;;;;;;;9.83;8.37;;;7.90;99.90;;;;;;5059786;28;20539;-84
2022/09/29 05:46:45;;;;;;;8.47;7.53;;;8.00;99.90;;;;;;5061786;28;20440;-84
2022/09/29 05:49:11;;;;;;;9.17;7.30;;;8.00;99.90;;;;;;5060582;28;20457;-85
2022/09/29 05:51:38;;;;;;;14.83;7.50;;;7.90;99.90;;;;;;5061496;28;20563;-86
2022/09/29 05:54:05;;;;;;;9.17;7.57;;;7.90;99.90;;;;;;5062256;28;20516;-86
2022/09/29 05:56:32;;;;;;;8.87;7.97;;;7.90;99.90;;;;;;5060669;28;20486;-85
2022/09/29 05:59:03;;;;;;;11.10;9.67;;;7.90;99.90;;;;;;5061260;28;20484;-86
2022/09/29 06:01:32;;;;;;;9.60;8.47;;;7.70;99.90;;;;;;5059689;28;20472;-85
2022/09/29 06:03:59;;;;;;;8.37;7.47;;;7.80;99.90;;;;;;5060563;28;20456;-86
2022/09/29 06:06:39;;;;;;;10.27;7.83;;;7.80;99.90;;;;;;5067165;28;20551;-85
2022/09/29 06:09:06;;;;;;;11.40;8.80;;;7.90;99.90;;;;;;5062747;28;20450;-86
2022/09/29 06:11:41;;;;;;;11.93;8.17;;;7.90;99.90;;;;;;5060740;28;20476;-85
2022/09/29 06:14:10;;;;;;;11.33;8.53;;;7.90;99.90;;;;;;5057874;28;20444;-86
2022/09/29 06:16:36;;;;;;;10.80;9.00;;;7.90;99.90;;;;;;5060811;28;20907;-86
2022/09/29 06:19:04;;;;;;;11.60;8.57;;;7.90;99.90;;;;;;5061100;28;20570;-84
2022/09/29 06:21:34;;;;;;;10.00;8.40;;;8.00;99.90;;;;;;5062017;28;20467;-86
2022/09/29 06:24:01;;;;;;;10.90;9.77;;;8.00;99.90;;;;;;5061289;28;20448;-86
2022/09/29 06:26:28;;;;;;;12.70;9.83;;;8.10;99.90;;;;;;5060929;28;20830;-86
2022/09/29 06:28:57;;;;;;;15.70;9.87;;;8.10;99.90;;;;;;5061309;28;20452;-86
2022/09/29 06:31:28;;;;;;;12.03;10.17;;;8.20;99.90;;;;;;5058419;28;20499;-86
2022/09/29 06:33:56;;;;;;;13.07;10.27;;;8.20;99.90;;;;;;5059310;28;20436;-86
2022/09/29 06:39:13;;;;;;;11.30;9.77;;;8.30;99.90;;;;;;5060861;28;21035;-86
2022/09/29 06:41:43;;;;;;;12.03;9.27;;;8.30;99.90;;;;;;5059962;28;21089;-85
2022/09/29 06:44:10;;;;;;;14.50;8.37;;;8.40;99.90;;;;;;5060524;28;20448;-85
2022/09/29 06:46:38;;;;;;;10.33;9.10;;;8.50;99.90;;;;;;5061894;28;20452;-85
2022/09/29 06:49:05;;;;;;;11.10;9.27;;;8.50;99.90;;;;;;5056024;28;20839;-85
2022/09/29 06:51:32;;;;;;;10.00;8.20;;;8.60;99.90;;;;;;5060821;28;20539;-84
2022/09/29 06:53:59;;;;;;;10.17;9.10;;;8.70;99.90;;;;;;5073578;28;20541;-84
2022/09/29 06:56:26;;;;;;;12.77;9.93;;;8.70;99.90;;;;;;5063660;28;20456;-84
2022/09/29 06:59:10;;;;;;;11.93;9.90;;;8.70;99.90;;;;;;5059467;28;20839;-83
2022/09/29 07:01:38;;;;;;;12.27;10.97;;;8.80;99.90;;;;;;5068584;28;20474;-85
2022/09/29 07:04:05;;;;;;;11.03;9.43;;;8.90;99.90;;;;;;5067184;28;20448;-85
2022/09/29 07:06:32;;;;;;;11.67;10.23;;;8.90;99.90;;;;;;5068898;28;20525;-85
2022/09/29 07:09:00;;;;;;;12.13;10.00;;;9.00;99.90;;;;;;5071218;28;20517;-86
2022/09/29 07:11:27;;;;;;;10.90;9.27;;;9.00;99.90;;;;;;5082307;28;20508;-85
2022/09/29 07:13:54;;;;;;;22.13;10.57;;;9.10;99.90;;;;;;5070732;28;20479;-84
2022/09/29 07:16:22;;;;;;;13.80;10.70;;;9.20;99.90;;;;;;5072568;28;20468;-86
2022/09/29 07:18:51;;;;;;;13.17;9.80;;;9.20;99.90;;;;;;5068902;28;20493;-86
2022/09/29 07:21:18;;;;;;;12.07;10.00;;;9.30;99.90;;;;;;5077165;28;20461;-85
2022/09/29 07:23:45;;;;;;;12.50;10.40;;;9.30;99.90;;;;;;5090055;28;20520;-85
2022/09/29 07:26:12;;;;;;;14.23;10.67;;;9.40;99.90;;;;;;5069371;28;20548;-85
2022/09/29 07:28:39;;;;;;;12.40;10.80;;;9.50;99.90;;;;;;5074278;28;20441;-85
2022/09/29 07:31:08;;;;;;;12.80;9.40;;;9.60;99.90;;;;;;5063601;28;20500;-85
2022/09/29 07:33:35;;;;;;;13.20;9.50;;;9.60;99.90;;;;;;5067094;28;20446;-86
2022/09/29 07:36:04;;;;;;;13.20;10.27;;;9.70;99.90;;;;;;5068442;28;20452;-84
2022/09/29 07:38:32;;;;;;;10.27;8.70;;;9.80;99.90;;;;;;5065688;28;20485;-87
2022/09/29 07:41:01;;;;;;;10.37;9.27;;;9.80;99.90;;;;;;5060887;28;20897;-84
2022/09/29 07:43:27;;;;;;;9.57;8.17;;;9.90;99.90;;;;;;5062817;28;20454;-85
2022/09/29 07:45:54;;;;;;;9.83;8.43;;;10.00;99.90;;;;;;5064620;28;20485;-84
2022/09/29 07:48:21;;;;;;;12.17;8.90;;;10.10;99.90;;;;;;5065866;28;20553;-85
2022/09/29 07:50:48;;;;;;;9.57;8.57;;;10.10;99.90;;;;;;5064633;28;20473;-83
2022/09/29 07:53:16;;;;;;;9.80;8.80;;;10.20;99.90;;;;;;5065205;28;20529;-85
2022/09/29 07:55:43;;;;;;;10.93;9.10;;;10.30;99.90;;;;;;5063038;28;20546;-85
2022/09/29 07:58:10;;;;;;;10.30;8.13;;;10.30;99.90;;;;;;5063239;28;20532;-86
2022/09/29 08:00:37;;;;;;;10.30;8.97;;;10.40;99.90;;;;;;5062958;28;20570;-85
2022/09/29 08:03:06;;;;;;;12.30;8.80;;;10.50;99.90;;;;;;5064418;28;20527;-85
2022/09/29 08:05:34;;;;;;;10.97;9.27;;;10.60;99.90;;;;;;5066517;28;20466;-86
2022/09/29 08:08:01;;;;;;;9.77;8.10;;;10.60;99.90;;;;;;5068625;28;20459;-85
2022/09/29 08:10:29;;;;;;;9.67;7.80;;;10.60;99.90;;;;;;5068083;28;20474;-85
2022/09/29 08:12:56;;;;;;;9.77;8.63;;;10.70;99.90;;;;;;5068880;28;20963;-86
2022/09/29 08:15:24;;;;;;;10.53;8.87;;;10.80;99.90;;;;;;5068970;28;20450;-85
2022/09/29 08:17:53;;;;;;;11.63;9.17;;;10.90;99.90;;;;;;5068507;28;20460;-85
2022/09/29 08:20:20;;;;;;;13.13;8.77;;;10.90;99.90;;;;;;5069290;28;20495;-85
2022/09/29 08:22:47;;;;;;;10.40;8.50;;;11.00;99.90;;;;;;5067947;28;20463;-85
2022/09/29 08:25:14;;;;;;;10.40;8.97;;;11.10;99.90;;;;;;5060916;28;20954;-86
2022/09/29 08:27:42;;;;;;;8.77;7.90;;;11.20;99.90;;;;;;5066925;28;20491;-85
2022/09/29 08:30:10;;;;;;;9.70;7.80;;;11.30;99.90;;;;;;5068026;28;20478;-86
2022/09/29 08:32:37;;;;;;;6.73;6.03;;;11.30;99.90;;;;;;5069505;28;20451;-86
2022/09/29 08:35:05;;;;;;;8.03;6.30;;;11.40;99.90;;;;;;5063289;28;20451;-84
2022/09/29 08:37:32;;;;;;;10.90;6.23;;;11.50;99.90;;;;;;5066138;28;20459;-86
2022/09/29 08:39:59;;;;;;;12.27;6.60;;;11.50;99.90;;;;;;5066046;28;20487;-86
2022/09/29 08:42:35;;;;;;;7.10;5.43;;;11.60;99.90;;;;;;5066377;28;20466;-85
2022/09/29 08:45:09;;;;;;;6.63;5.87;;;11.60;99.90;;;;;;5069292;28;20438;-87
2022/09/29 08:47:39;;;;;;;7.47;5.43;;;11.70;99.90;;;;;;5064448;28;20455;-85
2022/09/29 08:50:13;;;;;;;5.73;4.50;;;11.80;99.90;;;;;;5063451;28;20466;-85
2022/09/29 08:52:43;;;;;;;6.90;5.67;;;11.90;99.90;;;;;;5070532;28;20454;-85
2022/09/29 08:55:25;;;;;;;5.43;4.93;;;11.80;99.90;;;;;;5066694;28;20509;-86
2022/09/29 08:57:57;;;;;;;5.43;4.43;;;11.90;99.90;;;;;;5073113;28;20521;-85
2022/09/29 09:00:37;;;;;;;5.03;4.30;;;12.10;99.90;;;;;;5064506;28;20515;-84
2022/09/29 09:03:13;;;;;;;6.83;5.03;;;12.10;99.90;;;;;;5065900;28;20462;-86
2022/09/29 09:06:06;;;;;;;6.93;3.80;;;12.50;99.90;;;;;;5069503;28;21776;-87
2022/09/29 09:08:57;;;;;;;5.93;5.00;;;12.80;99.90;;;;;;5068564;28;20447;-85
2022/09/29 09:11:43;;;;;;;5.57;4.27;;;12.90;99.90;;;;;;5062878;28;20469;-84
2022/09/29 09:14:23;;;;;;;8.00;5.10;;;13.00;99.90;;;;;;5064393;28;20982;-86
2022/09/29 09:17:00;;;;;;;6.73;5.43;;;13.00;99.90;;;;;;5082331;28;20453;-87
2022/09/29 09:19:54;;;;;;;7.50;5.30;;;13.00;99.90;;;;;;5063125;28;21095;-85
2022/09/29 09:22:22;;;;;;;4.90;4.23;;;13.10;99.90;;;;;;5065224;28;20545;-84
2022/09/29 09:24:56;;;;;;;5.70;4.23;;;13.20;99.90;;;;;;5072941;28;20447;-85
2022/09/29 09:27:26;;;;;;;5.60;4.43;;;13.50;99.90;;;;;;5072457;28;20454;-85
2022/09/29 09:30:04;;;;;;;6.00;4.57;;;13.70;99.90;;;;;;5067395;28;20485;-84
2022/09/29 09:32:37;;;;;;;5.47;3.90;;;13.80;99.90;;;;;;5069256;28;20540;-85
2022/09/29 09:35:16;;;;;;;5.13;3.73;;;13.90;99.90;;;;;;5065005;28;20452;-85
2022/09/29 09:37:45;;;;;;;3.80;3.37;;;14.00;99.90;;;;;;5051200;28;20451;-86
2022/09/29 09:40:17;;;;;;;5.47;3.47;;;14.10;99.90;;;;;;5066137;28;20496;-85
2022/09/29 09:42:50;;;;;;;5.40;3.13;;;14.20;99.90;;;;;;5066873;28;20447;-86
2022/09/29 09:45:32;;;;;;;4.77;3.37;;;14.50;99.90;;;;;;5065892;28;20444;-86
2022/09/29 09:48:07;;;;;;;6.30;4.10;;;14.80;99.90;;;;;;5064493;28;20472;-86
2022/09/29 09:50:38;;;;;;;4.73;3.23;;;14.90;99.90;;;;;;5065737;28;20498;-85
2022/09/29 09:53:13;;;;;;;4.60;3.47;;;15.30;99.90;;;;;;5086034;28;20484;-85
2022/09/29 09:55:40;;;;;;;5.83;3.17;;;15.60;99.90;;;;;;5078274;28;20473;-84
2022/09/29 09:58:28;;;;;;;3.90;3.50;;;15.80;99.90;;;;;;5080667;28;20474;-85
2022/09/29 10:01:00;;;;;;;4.60;3.30;;;15.60;99.90;;;;;;5065380;28;21357;-85
2022/09/29 10:03:31;;;;;;;3.50;2.80;;;15.50;99.90;;;;;;5073236;28;20449;-85
2022/09/29 10:05:58;;;;;;;5.10;3.90;;;15.80;99.90;;;;;;5066278;28;20458;-85
2022/09/29 10:08:28;;;;;;;6.73;3.17;;;16.20;99.90;;;;;;5066360;28;20486;-85
2022/09/29 10:10:56;;;;;;;5.73;2.83;;;16.70;99.90;;;;;;5067610;28;20483;-85
2022/09/29 10:13:25;;;;;;;3.90;3.30;;;17.10;99.90;;;;;;5069139;28;20457;-85
2022/09/29 10:15:56;;;;;;;4.50;2.93;;;17.40;99.90;;;;;;5067411;28;20456;-86
2022/09/29 10:18:28;;;;;;;5.60;2.57;;;17.80;99.90;;;;;;5068714;28;20444;-85
2022/09/29 10:20:56;;;;;;;7.23;3.60;;;18.20;99.90;;;;;;5066596;28;20509;-86
2022/09/29 10:23:31;;;;;;;3.57;2.70;;;18.20;99.90;;;;;;5067327;28;21054;-85
2022/09/29 10:26:02;;;;;;;6.07;3.63;;;18.00;99.90;;;;;;5068913;28;20901;-84
2022/09/29 10:28:37;;;;;;;3.37;2.70;;;17.90;99.90;;;;;;5067809;28;20477;-84
2022/09/29 10:31:16;;;;;;;3.70;3.30;;;18.20;99.90;;;;;;5066818;28;20497;-85
2022/09/29 10:33:48;;;;;;;5.90;3.07;;;18.30;99.90;;;;;;5067536;28;20445;-86
2022/09/29 10:36:19;;;;;;;5.93;3.30;;;18.60;99.90;;;;;;5067460;28;20440;-84
2022/09/29 10:38:47;;;;;;;5.53;2.60;;;18.40;99.90;;;;;;5069432;28;20945;-84
2022/09/29 10:41:14;;;;;;;3.07;1.80;;;18.50;99.90;;;;;;5070986;28;20490;-84
2022/09/29 10:43:43;;;;;;;3.60;1.70;;;18.40;99.90;;;;;;5082459;28;20452;-83
2022/09/29 10:46:36;;;;;;;2.90;1.87;;;18.20;99.90;;;;;;5075536;28;20455;-83
2022/09/29 10:49:13;;;;;;;3.70;1.97;;;18.20;99.90;;;;;;5075015;28;20509;-85
2022/09/29 10:51:48;;;;;;;4.17;2.33;;;18.20;99.90;;;;;;5085234;28;20557;-84
2022/09/29 10:54:16;;;;;;;3.00;1.50;;;18.40;99.90;;;;;;5079897;28;20468;-85
2022/09/29 10:56:48;;;;;;;4.60;2.30;;;18.40;99.90;;;;;;5072744;28;20512;-85
2022/09/29 10:59:16;;;;;;;4.03;2.17;;;18.70;99.90;;;;;;5072714;28;20448;-86
2022/09/29 11:01:46;;;;;;;5.10;2.10;;;18.90;99.90;;;;;;5072830;28;20541;-85
2022/09/29 11:04:24;;;;;;;5.30;2.50;;;19.30;99.90;;;;;;5070926;28;20465;-83
2022/09/29 11:06:57;;;;;;;4.37;2.13;;;19.30;99.90;;;;;;5070746;28;20527;-84
2022/09/29 11:09:30;;;;;;;5.60;1.90;;;19.70;99.90;;;;;;5072576;28;20459;-84
2022/09/29 11:11:58;;;;;;;4.10;1.93;;;19.70;99.90;;;;;;5070107;28;20473;-83
2022/09/29 11:14:27;;;;;;;5.50;2.30;;;19.50;99.90;;;;;;5071822;28;20481;-84
2022/09/29 11:16:57;;;;;;;3.93;2.00;;;19.30;99.90;;;;;;5078071;28;20449;-85
2022/09/29 11:19:25;;;;;;;6.90;2.00;;;18.90;99.90;;;;;;5069975;28;20443;-85
2022/09/29 11:22:21;;;;;;;3.60;1.50;;;18.40;99.90;;;;;;5068657;28;20574;-83
2022/09/29 11:25:14;;;;;;;3.63;1.40;;;18.00;99.90;;;;;;5076703;28;20450;-84
2022/09/29 11:27:53;;;;;;;7.73;2.50;;;17.60;99.90;;;;;;5069282;28;20463;-84
2022/09/29 11:30:22;;;;;;;2.97;1.97;;;17.90;99.90;;;;;;5071034;28;20471;-84
2022/09/29 11:33:17;;;;;;;2.80;1.80;;;17.70;99.90;;;;;;5079878;28;20830;-84
2022/09/29 11:35:55;;;;;;;5.70;2.20;;;17.40;99.90;;;;;;5071551;28;20517;-84
2022/09/29 11:38:36;;;;;;;7.40;2.20;;;17.00;99.90;;;;;;5064845;28;20451;-84
2022/09/29 11:41:17;;;;;;;3.70;1.60;;;16.90;99.90;;;;;;5068168;28;20478;-83
2022/09/29 11:43:46;;;;;;;3.23;1.50;;;16.70;99.90;;;;;;5071214;28;20461;-83
2022/09/29 11:46:44;;;;;;;5.50;1.40;;;17.00;99.90;;;;;;5068915;28;20455;-84
2022/09/29 11:49:57;;;;;;;3.07;1.10;;;17.90;99.90;;;;;;5065276;28;20474;-85
2022/09/29 11:52:42;;;;;;;5.87;1.70;;;19.00;99.90;;;;;;5071711;28;20456;-84
2022/09/29 11:55:44;;;;;;;5.83;2.30;;;19.20;99.90;;;;;;5069235;28;20576;-85
2022/09/29 11:58:33;;;;;;;5.17;1.67;;;18.90;99.90;;;;;;5069235;28;20455;-84
2022/09/29 12:01:15;;;;;;;3.37;1.80;;;18.80;99.90;;;;;;5068481;28;20495;-85
2022/09/29 12:03:46;;;;;;;3.67;1.60;;;18.30;99.90;;;;;;5083493;28;20441;-85
2022/09/29 12:06:56;;;;;;;4.90;1.60;;;17.90;99.90;;;;;;5074646;28;20525;-85
2022/09/29 12:09:50;;;;;;;3.97;1.80;;;17.20;99.90;;;;;;5047659;28;20513;-81
2022/09/29 12:12:24;;;;;;;6.67;1.90;;;17.00;99.90;;;;;;5070329;28;20455;-86
2022/09/29 12:15:03;;;;;;;6.70;1.90;;;17.70;99.90;;;;;;5069618;28;20455;-84
2022/09/29 12:17:36;;;;;;;5.03;1.97;;;18.70;99.90;;;;;;5082916;28;20456;-85
2022/09/29 12:20:12;;;;;;;2.30;1.30;;;19.50;99.90;;;;;;5074618;28;20491;-84
2022/09/29 12:22:39;;;;;;;4.67;1.80;;;20.00;99.90;;;;;;5081621;28;20447;-85
2022/09/29 12:25:15;;;;;;;6.07;2.00;;;20.40;99.90;;;;;;5070690;28;20459;-86
2022/09/29 12:27:45;;;;;;;4.20;1.80;;;20.70;99.90;;;;;;5071281;28;20967;-85
2022/09/29 12:30:18;;;;;;;3.30;1.40;;;20.90;99.90;;;;;;5073468;28;20523;-85
2022/09/29 12:32:52;;;;;;;3.77;1.43;;;21.40;99.90;;;;;;5072617;28;20485;-87
2022/09/29 12:35:25;;;;;;;2.60;1.10;;;21.60;99.90;;;;;;5073568;28;20442;-86
2022/09/29 12:37:57;;;;;;;2.53;1.07;;;21.20;99.90;;;;;;5070063;28;20531;-85
2022/09/29 12:40:32;;;;;;;5.40;1.50;;;21.40;99.90;;;;;;5074836;28;20487;-86
2022/09/29 12:43:10;;;;;;;3.00;1.27;;;21.50;99.90;;;;;;5084485;28;20478;-85
2022/09/29 12:45:47;;;;;;;3.60;1.10;;;21.90;99.90;;;;;;5088883;28;20446;-87
2022/09/29 12:48:29;;;;;;;2.20;1.20;;;22.20;99.90;;;;;;5072454;28;20444;-85
2022/09/29 12:51:09;;;;;;;4.40;1.50;;;22.10;99.90;;;;;;5070538;28;20487;-86
2022/09/29 12:53:45;;;;;;;2.90;1.30;;;22.30;99.90;;;;;;5076055;28;20459;-86
2022/09/29 12:56:20;;;;;;;2.80;1.67;;;21.80;99.90;;;;;;5072391;28;20452;-87
2022/09/29 12:58:57;;;;;;;2.50;1.27;;;21.10;99.90;;;;;;5068552;28;20427;-85
2022/09/29 13:01:28;;;;;;;3.17;1.33;;;20.70;99.90;;;;;;5072462;28;20518;-88
2022/09/29 13:04:27;;;;;;;2.33;1.27;;;20.30;99.90;;;;;;5070248;28;20461;-88
2022/09/29 13:07:22;;;;;;;3.50;1.20;;;19.60;99.90;;;;;;5066820;28;20534;-87
2022/09/29 13:10:09;;;;;;;3.40;1.83;;;19.40;99.90;;;;;;5069788;28;20453;-88
2022/09/29 13:13:18;;;;;;;13.70;5.63;;;20.00;99.90;;;;;;5074583;28;20444;-86
2022/09/29 13:15:56;;;;;;;3.33;1.40;;;20.60;99.90;;;;;;5061432;28;20979;-87